Time;durP1;ratioP1;P1;durP2;ratioP2;P2;SDS_P1;SDS_P2;PMS_P1;PMS_P2;Temp;Humidity;BMP_temperature;BMP_pressure;BME280_temperature;BME280_humidity;BME280_pressure;Samples;Min_cycle;Max_cycle;Signal;HPM_P1;HPM_P2
2023/06/19 00:00:20;;;;;;;6.85;6.25;;;19.80;62.60;;;;;;4966899;28;20646;-84
2023/06/19 00:02:47;;;;;;;7.07;6.18;;;19.80;62.60;;;;;;4967766;28;20046;-85
2023/06/19 00:05:14;;;;;;;7.53;6.75;;;19.80;62.70;;;;;;4989643;28;20090;-84
2023/06/19 00:07:40;;;;;;;6.47;5.88;;;19.80;62.80;;;;;;4984713;28;20634;-84
2023/06/19 00:10:06;;;;;;;7.32;5.88;;;19.70;62.60;;;;;;4987305;28;20045;-85
2023/06/19 00:12:33;;;;;;;6.30;5.80;;;19.70;62.70;;;;;;4989678;28;20060;-83
2023/06/19 00:15:02;;;;;;;6.90;6.30;;;19.70;62.80;;;;;;4984988;28;20093;-84
2023/06/19 00:17:29;;;;;;;7.05;6.38;;;19.70;62.80;;;;;;4982957;28;20046;-83
2023/06/19 00:19:55;;;;;;;6.65;6.05;;;19.70;62.90;;;;;;4985849;28;20426;-81
2023/06/19 00:22:21;;;;;;;7.00;5.97;;;19.60;62.70;;;;;;4984348;28;20124;-84
2023/06/19 00:24:47;;;;;;;7.00;6.30;;;19.60;62.80;;;;;;4984225;28;20062;-82
2023/06/19 00:27:14;;;;;;;6.93;6.22;;;19.60;62.80;;;;;;4979109;28;20049;-82
2023/06/19 00:29:40;;;;;;;7.43;6.60;;;19.60;62.90;;;;;;4977870;28;20046;-84
2023/06/19 00:32:06;;;;;;;6.93;6.32;;;19.50;62.70;;;;;;4979880;28;20058;-83
2023/06/19 00:34:32;;;;;;;7.88;6.50;;;19.50;62.80;;;;;;4980179;28;20253;-82
2023/06/19 00:36:58;;;;;;;7.18;6.47;;;19.50;62.90;;;;;;4986341;28;20276;-84
2023/06/19 00:39:26;;;;;;;7.00;6.30;;;19.50;62.90;;;;;;4983098;28;20026;-83
2023/06/19 00:41:52;;;;;;;6.78;6.07;;;19.40;62.80;;;;;;4985373;28;20069;-83
2023/06/19 00:44:19;;;;;;;7.03;6.32;;;19.40;62.80;;;;;;4981886;28;20042;-85
2023/06/19 00:46:54;;;;;;;6.45;5.80;;;19.40;62.90;;;;;;4982601;28;20073;-85
2023/06/19 00:49:21;;;;;;;6.70;5.67;;;19.40;63.00;;;;;;4979956;28;20122;-84
2023/06/19 00:51:47;;;;;;;6.38;5.78;;;19.30;62.80;;;;;;4984663;28;20502;-84
2023/06/19 00:54:15;;;;;;;6.55;5.97;;;19.30;62.90;;;;;;4984658;28;20545;-84
2023/06/19 00:56:41;;;;;;;7.10;6.50;;;19.30;62.90;;;;;;4984185;28;20188;-84
2023/06/19 00:59:18;;;;;;;6.80;6.13;;;19.30;63.00;;;;;;4986667;28;20088;-83
2023/06/19 01:01:45;;;;;;;7.00;6.15;;;19.30;63.10;;;;;;4991905;28;20038;-84
2023/06/19 01:04:11;;;;;;;8.10;7.30;;;19.20;62.90;;;;;;4978822;28;20038;-84
2023/06/19 01:07:03;;;;;;;6.22;5.63;;;19.20;62.90;;;;;;4992985;28;20400;-86
2023/06/19 01:09:36;;;;;;;6.28;5.63;;;19.20;63.10;;;;;;4983760;28;20117;-86
2023/06/19 01:12:20;;;;;;;6.85;6.10;;;19.10;62.80;;;;;;4987764;28;20062;-85
2023/06/19 01:14:57;;;;;;;6.97;6.38;;;19.10;62.90;;;;;;4984980;28;20034;-86
2023/06/19 01:17:24;;;;;;;6.93;5.65;;;19.10;62.90;;;;;;4981026;28;20133;-86
2023/06/19 01:19:50;;;;;;;6.72;6.00;;;19.10;62.80;;;;;;4978108;28;20030;-83
2023/06/19 01:22:43;;;;;;;6.35;5.20;;;19.10;62.90;;;;;;4984392;28;20328;-82
2023/06/19 01:25:13;;;;;;;5.95;5.45;;;19.10;63.10;;;;;;4981136;28;20277;-82
2023/06/19 01:27:40;;;;;;;5.95;5.45;;;19.10;63.00;;;;;;4982795;28;20520;-83
2023/06/19 01:30:13;;;;;;;6.60;6.00;;;19.00;62.80;;;;;;4998741;28;20040;-82
2023/06/19 01:33:09;;;;;;;6.40;5.88;;;19.00;62.90;;;;;;4969342;28;20064;-84
2023/06/19 01:35:41;;;;;;;6.68;5.97;;;19.00;63.00;;;;;;4983937;28;20038;-83
2023/06/19 01:38:08;;;;;;;8.20;6.30;;;19.00;63.00;;;;;;4987862;28;20030;-83
2023/06/19 01:40:35;;;;;;;5.95;5.35;;;18.90;62.80;;;;;;4985809;28;20042;-83
2023/06/19 01:43:07;;;;;;;6.70;6.07;;;18.90;62.90;;;;;;4985277;28;20138;-82
2023/06/19 01:45:33;;;;;;;6.85;6.18;;;18.90;62.90;;;;;;4974664;28;20049;-83
2023/06/19 01:48:00;;;;;;;6.47;5.90;;;18.90;63.00;;;;;;4987130;28;20521;-82
2023/06/19 01:50:26;;;;;;;6.28;5.72;;;18.80;62.90;;;;;;4955011;28;20402;-82
2023/06/19 01:52:55;;;;;;;6.90;6.20;;;18.80;62.90;;;;;;4985093;28;20022;-83
2023/06/19 01:55:22;;;;;;;8.50;5.75;;;18.80;63.00;;;;;;4986322;28;20650;-83
2023/06/19 01:57:48;;;;;;;6.75;6.10;;;18.80;63.00;;;;;;4969585;28;20049;-82
2023/06/19 02:00:18;;;;;;;6.95;6.35;;;18.70;62.90;;;;;;4978297;28;20141;-82
2023/06/19 02:02:44;;;;;;;6.05;5.45;;;18.70;63.00;;;;;;4986449;28;20378;-83
2023/06/19 02:05:15;;;;;;;6.13;5.53;;;18.70;63.10;;;;;;4992798;28;20196;-83
2023/06/19 02:07:44;;;;;;;6.65;6.05;;;18.70;63.20;;;;;;4986646;28;20132;-84
2023/06/19 02:10:11;;;;;;;6.60;6.00;;;18.70;63.20;;;;;;4978056;28;20031;-84
2023/06/19 02:12:37;;;;;;;6.35;5.85;;;18.60;63.20;;;;;;4980822;28;20030;-82
2023/06/19 02:15:04;;;;;;;7.95;7.15;;;18.70;63.30;;;;;;4987632;28;20042;-84
2023/06/19 02:17:30;;;;;;;6.53;5.88;;;18.70;63.40;;;;;;4985653;28;20030;-84
2023/06/19 02:19:56;;;;;;;8.38;6.32;;;18.60;63.20;;;;;;4985603;28;20150;-82
2023/06/19 02:22:23;;;;;;;6.47;5.88;;;18.60;63.30;;;;;;4986942;28;20203;-83
2023/06/19 02:24:49;;;;;;;7.50;6.78;;;18.60;63.30;;;;;;4981635;28;20027;-85
2023/06/19 02:27:15;;;;;;;6.13;5.63;;;18.60;63.30;;;;;;4985859;28;20035;-82
2023/06/19 02:29:42;;;;;;;7.15;6.28;;;18.60;63.30;;;;;;4988644;28;20030;-83
2023/06/19 02:32:08;;;;;;;6.22;5.63;;;18.60;63.40;;;;;;4984971;28;20045;-83
2023/06/19 02:34:34;;;;;;;6.93;6.00;;;18.60;63.40;;;;;;4979076;28;20034;-82
2023/06/19 02:37:00;;;;;;;7.75;6.93;;;18.60;63.40;;;;;;4986266;28;20022;-82
2023/06/19 02:39:32;;;;;;;6.82;6.10;;;18.60;63.40;;;;;;4986200;28;20038;-84
2023/06/19 02:41:59;;;;;;;7.63;5.85;;;18.50;63.30;;;;;;4987351;28;20041;-84
2023/06/19 02:44:28;;;;;;;6.88;6.22;;;18.50;63.30;;;;;;4988505;28;20190;-84
2023/06/19 02:46:54;;;;;;;6.50;5.90;;;18.50;63.40;;;;;;4985335;28;20082;-83
2023/06/19 02:49:24;;;;;;;7.03;6.43;;;18.50;63.40;;;;;;4972989;28;20039;-82
2023/06/19 02:51:52;;;;;;;6.50;5.80;;;18.40;63.30;;;;;;4984772;28;20042;-82
2023/06/19 02:54:21;;;;;;;7.57;6.80;;;18.40;63.30;;;;;;4965364;28;20038;-84
2023/06/19 02:56:47;;;;;;;7.07;6.38;;;18.40;63.30;;;;;;4984685;28;20080;-83
2023/06/19 02:59:17;;;;;;;7.53;6.82;;;18.40;63.40;;;;;;4985198;28;20035;-83
2023/06/19 03:01:44;;;;;;;7.35;6.65;;;18.40;63.50;;;;;;4984295;28;20424;-83
2023/06/19 03:04:13;;;;;;;7.95;5.97;;;18.30;63.40;;;;;;4979810;28;20038;-82
2023/06/19 03:06:41;;;;;;;6.35;5.72;;;18.20;63.30;;;;;;4984642;28;20042;-84
2023/06/19 03:09:12;;;;;;;7.95;7.15;;;18.30;63.60;;;;;;4986270;28;20039;-83
2023/06/19 03:11:40;;;;;;;6.53;5.95;;;18.20;63.40;;;;;;4969618;28;20671;-84
2023/06/19 03:14:07;;;;;;;7.32;6.60;;;18.20;63.50;;;;;;4985464;28;20027;-83
2023/06/19 03:16:34;;;;;;;7.43;6.50;;;18.20;63.60;;;;;;4984654;28;20100;-84
2023/06/19 03:19:01;;;;;;;7.07;6.47;;;18.20;63.60;;;;;;4983360;28;20074;-87
2023/06/19 03:21:28;;;;;;;6.88;6.18;;;18.20;63.60;;;;;;4985963;28;20061;-83
2023/06/19 03:23:54;;;;;;;6.95;6.25;;;18.20;63.70;;;;;;4986198;28;20046;-85
2023/06/19 03:26:24;;;;;;;6.97;6.35;;;18.20;63.70;;;;;;4984286;28;20270;-81
2023/06/19 03:28:50;;;;;;;6.65;5.90;;;18.20;63.70;;;;;;4986277;28;20097;-82
2023/06/19 03:31:17;;;;;;;7.07;6.38;;;18.20;63.80;;;;;;4984411;28;20030;-83
2023/06/19 03:33:43;;;;;;;7.65;7.05;;;18.20;63.80;;;;;;4985002;28;20038;-84
2023/06/19 03:36:10;;;;;;;8.40;6.53;;;18.20;63.80;;;;;;4985796;28;20038;-83
2023/06/19 03:38:48;;;;;;;7.65;6.82;;;18.20;63.80;;;;;;4985519;28;20038;-83
2023/06/19 03:41:16;;;;;;;6.95;6.03;;;18.30;64.00;;;;;;4984569;28;20473;-84
2023/06/19 03:43:42;;;;;;;6.60;6.00;;;18.30;64.00;;;;;;4984920;28;20038;-83
2023/06/19 03:46:08;;;;;;;7.97;6.90;;;18.20;63.80;;;;;;4984731;28;20477;-84
2023/06/19 03:48:35;;;;;;;7.63;6.85;;;18.20;63.90;;;;;;4981851;28;20458;-82
2023/06/19 03:51:01;;;;;;;7.68;6.95;;;18.30;64.10;;;;;;4984178;28;20038;-85
2023/06/19 03:53:27;;;;;;;6.80;6.20;;;18.30;64.10;;;;;;4985948;28;20042;-84
2023/06/19 03:55:54;;;;;;;6.53;5.88;;;18.30;64.10;;;;;;4983451;28;20120;-84
2023/06/19 03:58:20;;;;;;;7.30;6.03;;;18.30;64.10;;;;;;4985738;28;20038;-83
2023/06/19 04:00:47;;;;;;;7.75;6.88;;;18.30;64.10;;;;;;4988869;28;20037;-84
2023/06/19 04:03:13;;;;;;;7.25;6.57;;;18.30;64.20;;;;;;4980634;28;20041;-82
2023/06/19 04:05:41;;;;;;;8.07;6.68;;;18.30;64.20;;;;;;4983500;28;20482;-82
2023/06/19 04:08:07;;;;;;;7.43;6.72;;;18.40;64.40;;;;;;4983116;28;20053;-83
2023/06/19 04:10:33;;;;;;;7.43;6.72;;;18.30;64.20;;;;;;4983735;28;20026;-83
2023/06/19 04:13:00;;;;;;;9.15;7.13;;;18.30;64.20;;;;;;4984646;28;20081;-82
2023/06/19 04:15:27;;;;;;;7.78;7.05;;;18.40;64.50;;;;;;4984490;28;20100;-83
2023/06/19 04:17:53;;;;;;;7.97;7.28;;;18.40;64.50;;;;;;4980451;28;20039;-83
2023/06/19 04:20:19;;;;;;;7.88;7.15;;;18.40;64.60;;;;;;4988381;28;20049;-81
2023/06/19 04:22:47;;;;;;;7.85;7.10;;;18.40;64.60;;;;;;4989290;28;20022;-82
2023/06/19 04:25:13;;;;;;;8.60;6.97;;;18.30;65.00;;;;;;4989952;28;20038;-82
2023/06/19 04:27:40;;;;;;;7.82;7.03;;;18.40;64.90;;;;;;4986673;28;20042;-84
2023/06/19 04:30:06;;;;;;;8.80;7.85;;;18.40;64.70;;;;;;4989962;28;20177;-82
2023/06/19 04:32:34;;;;;;;9.05;7.63;;;18.40;64.80;;;;;;4992573;28;20034;-81
2023/06/19 04:35:00;;;;;;;9.15;7.38;;;18.40;64.80;;;;;;4989407;28;20120;-84
2023/06/19 04:37:26;;;;;;;7.85;7.15;;;18.50;64.90;;;;;;4997702;28;20498;-84
2023/06/19 04:39:53;;;;;;;8.20;7.40;;;18.50;64.90;;;;;;4994164;28;20034;-83
2023/06/19 04:42:20;;;;;;;8.23;7.43;;;18.50;64.80;;;;;;4991610;28;20125;-83
2023/06/19 04:44:49;;;;;;;9.30;8.02;;;18.60;64.90;;;;;;4996395;28;20578;-82
2023/06/19 04:47:18;;;;;;;8.57;7.72;;;18.70;65.00;;;;;;4987550;28;20072;-81
2023/06/19 04:49:44;;;;;;;8.90;7.85;;;18.80;65.00;;;;;;4987060;28;20498;-83
2023/06/19 04:52:11;;;;;;;10.20;7.45;;;18.80;64.80;;;;;;4999445;28;20695;-81
2023/06/19 04:54:37;;;;;;;8.38;7.38;;;18.90;64.90;;;;;;5000284;28;20559;-82
2023/06/19 04:57:03;;;;;;;8.40;7.60;;;19.00;65.00;;;;;;4996338;28;20030;-80
2023/06/19 04:59:30;;;;;;;9.00;7.50;;;19.00;64.90;;;;;;4987595;28;20034;-81
2023/06/19 05:01:57;;;;;;;8.68;7.78;;;19.10;65.00;;;;;;4984729;28;20044;-82
2023/06/19 05:04:24;;;;;;;10.38;8.95;;;19.10;65.00;;;;;;4989632;28;20041;-81
2023/06/19 05:06:50;;;;;;;9.32;8.43;;;19.10;65.00;;;;;;4982653;28;20042;-82
2023/06/19 05:09:19;;;;;;;8.27;7.13;;;19.10;65.10;;;;;;4981539;28;20043;-81
2023/06/19 05:11:45;;;;;;;9.18;8.18;;;19.10;65.10;;;;;;4979871;28;20034;-80
2023/06/19 05:14:14;;;;;;;9.50;8.50;;;19.10;65.10;;;;;;4982043;28;20484;-78
2023/06/19 05:16:40;;;;;;;9.40;8.10;;;19.10;65.20;;;;;;4981327;28;20433;-79
2023/06/19 05:19:06;;;;;;;10.38;8.50;;;19.10;65.20;;;;;;4977736;28;20368;-80
2023/06/19 05:21:32;;;;;;;11.13;7.75;;;19.10;65.30;;;;;;4979103;28;20045;-78
2023/06/19 05:23:58;;;;;;;9.70;8.70;;;19.20;65.50;;;;;;4985411;28;20034;-80
2023/06/19 05:26:25;;;;;;;9.18;8.27;;;19.20;65.50;;;;;;4981567;28;20125;-79
2023/06/19 05:28:52;;;;;;;10.63;8.63;;;19.20;65.50;;;;;;4981349;28;20136;-80
2023/06/19 05:31:18;;;;;;;10.02;8.80;;;19.20;65.50;;;;;;4981076;28;20766;-79
2023/06/19 05:33:44;;;;;;;10.05;8.93;;;19.30;65.70;;;;;;4977390;28;20275;-82
2023/06/19 05:36:11;;;;;;;9.13;8.13;;;19.40;65.80;;;;;;4979970;28;20026;-81
2023/06/19 05:38:37;;;;;;;11.13;9.38;;;19.40;65.60;;;;;;4977461;28;20299;-84
2023/06/19 05:41:03;;;;;;;12.85;9.98;;;19.60;65.70;;;;;;5002300;28;20669;-82
2023/06/19 05:43:29;;;;;;;10.90;8.57;;;19.70;65.70;;;;;;4981549;28;20041;-82
2023/06/19 05:45:56;;;;;;;8.80;7.93;;;19.80;65.60;;;;;;4983278;28;20617;-80
2023/06/19 05:48:25;;;;;;;10.18;9.15;;;19.90;65.60;;;;;;4977283;28;20703;-78
2023/06/19 05:50:52;;;;;;;9.98;8.60;;;20.00;65.60;;;;;;4974590;28;20444;-82
2023/06/19 05:53:20;;;;;;;9.05;8.10;;;20.00;65.50;;;;;;4979375;28;20533;-82
2023/06/19 05:55:46;;;;;;;11.50;9.18;;;20.10;65.70;;;;;;4981245;28;20038;-84
2023/06/19 05:58:15;;;;;;;9.10;7.88;;;20.00;65.40;;;;;;4982244;28;20517;-81
2023/06/19 06:00:41;;;;;;;9.93;8.23;;;20.10;65.60;;;;;;4978775;28;20030;-84
2023/06/19 06:03:10;;;;;;;7.22;6.53;;;20.20;65.80;;;;;;4984838;28;20030;-84
2023/06/19 06:05:36;;;;;;;9.60;7.22;;;20.20;66.10;;;;;;4985395;28;20042;-81
2023/06/19 06:08:02;;;;;;;7.10;6.40;;;20.20;66.60;;;;;;4981633;28;20046;-81
2023/06/19 06:10:31;;;;;;;8.80;7.38;;;20.30;66.90;;;;;;4978643;28;20043;-79
2023/06/19 06:12:57;;;;;;;8.23;7.32;;;20.30;67.00;;;;;;4979329;28;20121;-80
2023/06/19 06:15:24;;;;;;;8.18;6.68;;;20.40;67.20;;;;;;4959456;28;20117;-82
2023/06/19 06:17:52;;;;;;;6.85;6.15;;;20.40;67.20;;;;;;4992010;28;20054;-84
2023/06/19 06:20:24;;;;;;;7.85;7.13;;;20.50;67.30;;;;;;4990763;28;20148;-83
2023/06/19 06:22:50;;;;;;;8.63;7.72;;;20.60;67.30;;;;;;4981124;28;20042;-83
2023/06/19 06:25:16;;;;;;;8.82;7.90;;;20.60;67.20;;;;;;4977866;28;20034;-83
2023/06/19 06:27:42;;;;;;;7.88;6.95;;;20.70;67.30;;;;;;4982711;28;20509;-82
2023/06/19 06:30:11;;;;;;;8.45;7.22;;;20.80;67.20;;;;;;4979191;28;20066;-83
2023/06/19 06:32:37;;;;;;;8.35;7.00;;;21.00;67.40;;;;;;4983114;28;20212;-84
2023/06/19 06:35:04;;;;;;;8.70;7.82;;;21.20;67.50;;;;;;4972281;28;20169;-80
2023/06/19 06:37:31;;;;;;;7.47;6.53;;;21.50;67.60;;;;;;4978589;28;20406;-81
2023/06/19 06:39:57;;;;;;;7.88;6.38;;;21.90;67.50;;;;;;4978641;28;20413;-81
2023/06/19 06:42:26;;;;;;;7.43;6.72;;;22.30;67.30;;;;;;4977553;28;20030;-83
2023/06/19 06:44:58;;;;;;;9.30;7.28;;;22.60;67.20;;;;;;4973535;28;20596;-84
2023/06/19 06:47:27;;;;;;;9.65;6.95;;;22.90;67.10;;;;;;4971253;28;20137;-84
2023/06/19 06:49:52;;;;;;;6.60;5.93;;;23.20;67.00;;;;;;4981435;28;20033;-81
2023/06/19 06:52:24;;;;;;;7.43;6.73;;;23.60;66.90;;;;;;4985145;28;20040;-82
2023/06/19 06:54:50;;;;;;;6.75;6.10;;;24.10;66.80;;;;;;4982043;28;20034;-80
2023/06/19 06:57:16;;;;;;;6.80;6.10;;;24.50;66.50;;;;;;4980416;28;20041;-81
2023/06/19 06:59:43;;;;;;;6.35;5.72;;;24.90;66.00;;;;;;4986410;28;20117;-83
2023/06/19 07:02:09;;;;;;;7.07;5.80;;;25.20;65.30;;;;;;4991857;28;20456;-81
2023/06/19 07:04:35;;;;;;;6.72;6.05;;;25.40;64.90;;;;;;4977313;28;20608;-83
2023/06/19 07:07:03;;;;;;;7.43;5.55;;;25.50;64.70;;;;;;4984461;28;20046;-81
2023/06/19 07:09:32;;;;;;;6.55;5.53;;;25.80;64.30;;;;;;4979795;28;20042;-81
2023/06/19 07:11:58;;;;;;;5.63;5.13;;;26.30;63.50;;;;;;4976539;28;20092;-86
2023/06/19 07:14:24;;;;;;;6.40;5.82;;;26.80;62.50;;;;;;4979502;28;20359;-84
2023/06/19 07:16:51;;;;;;;7.88;5.57;;;27.30;61.70;;;;;;4978201;28;20030;-82
2023/06/19 07:19:17;;;;;;;7.15;4.80;;;27.70;60.90;;;;;;4979211;28;20466;-85
2023/06/19 07:21:44;;;;;;;8.52;6.25;;;28.10;60.30;;;;;;4980682;28;20121;-88
2023/06/19 07:24:10;;;;;;;6.13;4.70;;;28.20;59.90;;;;;;4987875;28;20038;-83
2023/06/19 07:26:36;;;;;;;7.32;5.75;;;28.20;59.70;;;;;;4976054;28;20101;-83
2023/06/19 07:29:02;;;;;;;5.63;4.85;;;28.10;59.60;;;;;;4979402;28;20275;-81
2023/06/19 07:31:28;;;;;;;5.80;5.18;;;28.10;59.70;;;;;;4978400;28;20543;-80
2023/06/19 07:33:54;;;;;;;6.05;4.78;;;28.30;59.40;;;;;;4979138;28;20037;-80
2023/06/19 07:36:21;;;;;;;5.07;4.45;;;28.40;59.00;;;;;;4979015;28;20189;-85
2023/06/19 07:38:48;;;;;;;5.40;4.03;;;28.60;58.70;;;;;;4962716;28;20375;-82
2023/06/19 07:41:20;;;;;;;5.55;4.75;;;28.80;58.00;;;;;;4995939;28;20046;-82
2023/06/19 07:43:46;;;;;;;5.65;5.10;;;29.10;57.60;;;;;;4983337;28;20202;-82
2023/06/19 07:46:15;;;;;;;4.68;4.22;;;29.50;57.00;;;;;;4979787;28;20433;-81
2023/06/19 07:48:41;;;;;;;4.82;4.32;;;29.80;56.10;;;;;;4995632;28;20069;-82
2023/06/19 07:51:13;;;;;;;5.55;4.80;;;30.20;55.50;;;;;;4983744;28;20648;-80
2023/06/19 07:53:43;;;;;;;4.70;4.30;;;30.30;55.00;;;;;;4984158;28;20458;-79
2023/06/19 07:56:09;;;;;;;7.03;4.55;;;30.10;55.00;;;;;;4990746;28;20072;-81
2023/06/19 07:58:36;;;;;;;6.32;4.38;;;29.90;55.20;;;;;;4979247;28;20497;-85
2023/06/19 08:01:03;;;;;;;4.72;4.15;;;29.60;55.50;;;;;;4985568;28;20042;-82
2023/06/19 08:03:32;;;;;;;4.88;4.03;;;29.60;56.00;;;;;;4983405;28;20073;-80
2023/06/19 08:05:58;;;;;;;6.43;4.78;;;29.70;55.70;;;;;;4984157;28;20038;-82
2023/06/19 08:08:32;;;;;;;5.00;4.47;;;29.90;55.60;;;;;;4989380;28;20046;-80
2023/06/19 08:10:59;;;;;;;4.93;4.43;;;29.80;55.30;;;;;;4981144;28;20037;-82
2023/06/19 08:13:25;;;;;;;4.88;4.25;;;29.70;55.20;;;;;;4981840;28;20238;-82
2023/06/19 08:15:51;;;;;;;4.82;4.13;;;29.60;55.30;;;;;;4980381;28;20534;-81
2023/06/19 08:18:17;;;;;;;4.78;4.00;;;29.70;55.40;;;;;;4974090;28;20045;-84
2023/06/19 08:20:43;;;;;;;4.63;4.18;;;29.70;55.30;;;;;;4981960;28;20758;-82
2023/06/19 08:23:09;;;;;;;4.55;4.13;;;29.50;55.10;;;;;;4982809;28;20498;-81
2023/06/19 08:25:35;;;;;;;4.53;4.10;;;29.50;55.20;;;;;;4980464;28;20057;-82
2023/06/19 08:28:01;;;;;;;4.28;3.88;;;29.60;55.30;;;;;;4981412;28;20113;-85
2023/06/19 08:30:27;;;;;;;4.43;3.63;;;29.60;55.10;;;;;;4994606;28;20072;-81
2023/06/19 08:32:53;;;;;;;4.63;3.55;;;29.70;54.80;;;;;;4980105;28;20022;-83
2023/06/19 08:35:19;;;;;;;3.88;3.55;;;29.80;54.70;;;;;;4979669;28;20486;-83
2023/06/19 08:37:45;;;;;;;6.40;4.15;;;29.80;54.60;;;;;;4981961;28;20038;-83
2023/06/19 08:40:14;;;;;;;5.32;4.22;;;29.90;54.50;;;;;;4989690;28;20806;-83
2023/06/19 08:42:42;;;;;;;4.35;3.83;;;30.00;54.40;;;;;;4982435;28;20453;-84
2023/06/19 08:45:09;;;;;;;3.63;3.00;;;30.20;54.20;;;;;;4982580;28;20107;-83
2023/06/19 08:47:37;;;;;;;4.50;3.60;;;30.50;53.80;;;;;;4985419;28;20137;-85
2023/06/19 08:50:12;;;;;;;3.60;3.30;;;30.70;53.30;;;;;;4986845;28;20034;-81
2023/06/19 08:52:38;;;;;;;4.20;3.75;;;30.80;53.10;;;;;;4983445;28;20080;-85
2023/06/19 08:55:05;;;;;;;5.47;4.03;;;30.70;53.10;;;;;;4980791;28;20052;-84
2023/06/19 08:57:39;;;;;;;4.50;3.60;;;30.60;53.10;;;;;;4974608;28;20071;-82
2023/06/19 09:00:07;;;;;;;5.03;3.53;;;30.70;53.00;;;;;;4981610;28;20026;-85
2023/06/19 09:02:43;;;;;;;3.78;3.25;;;30.70;53.00;;;;;;4982014;28;20691;-85
2023/06/19 09:05:17;;;;;;;3.60;3.30;;;30.90;52.70;;;;;;4979169;28;20564;-82
2023/06/19 09:07:44;;;;;;;3.95;3.47;;;31.00;52.40;;;;;;4979313;28;20439;-80
2023/06/19 09:10:18;;;;;;;3.58;3.28;;;31.20;52.20;;;;;;4982282;28;20057;-82
2023/06/19 09:12:58;;;;;;;4.80;3.53;;;31.30;51.90;;;;;;4995196;28;20169;-82
2023/06/19 09:15:28;;;;;;;3.40;3.10;;;31.30;51.40;;;;;;4989350;28;20574;-84
2023/06/19 09:18:11;;;;;;;4.03;3.10;;;31.20;51.40;;;;;;4980338;28;20049;-84
2023/06/19 09:20:44;;;;;;;3.28;2.97;;;31.10;51.40;;;;;;4983018;28;20053;-85
2023/06/19 09:23:11;;;;;;;4.43;3.03;;;31.10;51.70;;;;;;4987344;28;20128;-84
2023/06/19 09:25:49;;;;;;;3.42;2.92;;;31.20;51.80;;;;;;4971206;28;20531;-84
2023/06/19 09:28:27;;;;;;;2.80;2.60;;;31.40;51.70;;;;;;4982567;28;20042;-85
2023/06/19 09:30:57;;;;;;;3.05;2.40;;;31.60;51.20;;;;;;4987867;28;20393;-83
2023/06/19 09:33:25;;;;;;;3.00;2.70;;;31.90;50.90;;;;;;4978307;28;20038;-81
2023/06/19 09:35:54;;;;;;;2.83;2.58;;;31.90;50.70;;;;;;4994865;28;20449;-82
2023/06/19 09:38:33;;;;;;;3.13;2.85;;;32.00;50.50;;;;;;4978934;28;20038;-82
2023/06/19 09:41:04;;;;;;;2.70;2.50;;;32.00;50.20;;;;;;4986391;28;20189;-81
2023/06/19 09:43:37;;;;;;;3.28;2.97;;;32.10;50.20;;;;;;4992970;28;20258;-82
2023/06/19 09:46:14;;;;;;;3.72;3.03;;;32.10;49.90;;;;;;4988975;28;20490;-83
2023/06/19 09:48:43;;;;;;;3.00;2.42;;;32.10;50.00;;;;;;4970376;28;20219;-80
2023/06/19 09:51:20;;;;;;;3.90;2.80;;;32.20;50.00;;;;;;4978434;28;20034;-82
2023/06/19 09:53:53;;;;;;;2.70;2.47;;;32.40;49.70;;;;;;4991460;28;20137;-86
2023/06/19 09:56:24;;;;;;;2.30;2.10;;;32.60;49.60;;;;;;4978449;28;20045;-85
2023/06/19 09:58:53;;;;;;;2.83;2.40;;;32.70;49.40;;;;;;4997184;28;20042;-86
2023/06/19 10:01:19;;;;;;;2.65;2.35;;;32.80;49.20;;;;;;4996607;28;20112;-86
2023/06/19 10:03:46;;;;;;;2.85;2.53;;;32.80;49.10;;;;;;4988635;28;20049;-84
2023/06/19 10:06:16;;;;;;;2.88;2.58;;;32.70;49.00;;;;;;4981525;28;20057;-81
2023/06/19 10:08:44;;;;;;;2.78;2.55;;;32.80;48.80;;;;;;4980041;28;20057;-81
2023/06/19 10:11:11;;;;;;;2.53;2.30;;;33.00;48.80;;;;;;4980188;28;20034;-82
2023/06/19 10:13:43;;;;;;;2.80;2.50;;;33.10;48.60;;;;;;4989434;28;20042;-81
2023/06/19 10:16:23;;;;;;;2.17;2.03;;;33.30;48.40;;;;;;4971144;28;20040;-83
2023/06/19 10:18:50;;;;;;;2.85;2.15;;;33.40;48.20;;;;;;4976002;28;20034;-86
2023/06/19 10:21:17;;;;;;;2.33;2.13;;;33.40;48.10;;;;;;4987928;28;20096;-83
2023/06/19 10:23:56;;;;;;;2.20;2.00;;;33.40;48.00;;;;;;4976300;28;20039;-83
2023/06/19 10:26:35;;;;;;;2.50;2.30;;;33.30;47.90;;;;;;4979800;28;20501;-86
2023/06/19 10:29:04;;;;;;;2.13;1.83;;;33.40;48.50;;;;;;4980503;28;20038;-82
2023/06/19 10:31:36;;;;;;;2.90;2.00;;;33.50;47.90;;;;;;4991022;28;20030;-82
2023/06/19 10:34:03;;;;;;;2.58;1.67;;;33.70;47.70;;;;;;4983607;28;20775;-82
2023/06/19 10:36:30;;;;;;;2.15;2.00;;;33.90;47.30;;;;;;4973941;28;20037;-82
2023/06/19 10:38:56;;;;;;;2.38;2.17;;;34.10;47.00;;;;;;4984167;28;20042;-82
2023/06/19 10:41:25;;;;;;;5.22;2.35;;;34.40;46.70;;;;;;4983532;28;20044;-84
2023/06/19 10:44:04;;;;;;;3.63;2.28;;;34.70;46.30;;;;;;4998228;28;20045;-86
2023/06/19 10:46:37;;;;;;;2.55;2.10;;;35.00;45.90;;;;;;4980454;28;20041;-84
2023/06/19 10:49:05;;;;;;;3.00;2.22;;;35.00;45.40;;;;;;4982285;28;20125;-85
2023/06/19 10:51:35;;;;;;;2.40;2.05;;;34.90;45.40;;;;;;4978988;28;20037;-85
2023/06/19 10:54:01;;;;;;;1.90;1.80;;;34.70;45.70;;;;;;4991869;28;20034;-81
2023/06/19 10:56:27;;;;;;;3.22;1.95;;;34.60;45.80;;;;;;4983966;28;20034;-82
2023/06/19 10:59:14;;;;;;;2.58;1.95;;;34.70;45.70;;;;;;4986313;28;20037;-84
2023/06/19 11:01:50;;;;;;;2.25;1.55;;;34.90;45.40;;;;;;4963961;28;20043;-83
2023/06/19 11:04:19;;;;;;;1.65;1.52;;;35.20;45.20;;;;;;4978189;28;20034;-83
2023/06/19 11:06:46;;;;;;;1.65;1.55;;;35.40;44.90;;;;;;4986932;28;20564;-80
2023/06/19 11:09:13;;;;;;;2.15;1.80;;;35.30;44.70;;;;;;4981924;28;20054;-81
2023/06/19 11:11:44;;;;;;;2.10;1.90;;;35.20;44.90;;;;;;4987895;28;20037;-79
2023/06/19 11:14:14;;;;;;;1.80;1.70;;;35.00;45.00;;;;;;4979513;28;20038;-85
2023/06/19 11:16:46;;;;;;;2.35;1.80;;;34.80;45.20;;;;;;4979487;28;20108;-83
2023/06/19 11:19:17;;;;;;;2.33;1.75;;;34.60;45.40;;;;;;4977671;28;20038;-83
2023/06/19 11:21:46;;;;;;;2.85;1.70;;;34.60;45.60;;;;;;4985382;28;20038;-83
2023/06/19 11:24:14;;;;;;;2.30;1.63;;;34.70;45.60;;;;;;4987231;28;20685;-82
2023/06/19 11:26:43;;;;;;;1.98;1.70;;;34.80;45.40;;;;;;4983441;28;20113;-82
2023/06/19 11:29:18;;;;;;;1.70;1.58;;;34.70;45.20;;;;;;4973629;28;20185;-83
2023/06/19 11:31:46;;;;;;;1.88;1.58;;;34.80;45.30;;;;;;5007249;28;20069;-81
2023/06/19 11:34:17;;;;;;;2.00;1.50;;;35.10;45.20;;;;;;4965308;28;20034;-83
2023/06/19 11:36:46;;;;;;;1.67;1.58;;;35.50;44.80;;;;;;4988294;28;20057;-83
2023/06/19 11:39:15;;;;;;;1.40;1.30;;;36.00;44.30;;;;;;4971070;28;20405;-84
2023/06/19 11:41:46;;;;;;;1.75;1.50;;;36.20;44.10;;;;;;4987295;28;20126;-87
2023/06/19 11:44:15;;;;;;;2.10;1.70;;;36.10;43.90;;;;;;4986659;28;20042;-80
2023/06/19 11:46:43;;;;;;;2.75;1.80;;;35.90;44.00;;;;;;5009497;28;20049;-84
2023/06/19 11:49:20;;;;;;;2.00;1.85;;;35.80;44.00;;;;;;5001557;28;20050;-85
2023/06/19 11:51:47;;;;;;;2.83;1.77;;;35.80;44.00;;;;;;4987544;28;20046;-84
2023/06/19 11:54:15;;;;;;;2.50;1.55;;;35.90;44.00;;;;;;4983498;28;20153;-87
2023/06/19 11:56:41;;;;;;;2.90;2.08;;;36.00;43.70;;;;;;4982325;28;20402;-86
2023/06/19 11:59:10;;;;;;;1.92;1.83;;;36.10;43.60;;;;;;4992736;28;20287;-85
2023/06/19 12:01:37;;;;;;;3.53;2.10;;;36.10;43.60;;;;;;4997203;28;20038;-81
2023/06/19 12:04:03;;;;;;;1.95;1.77;;;35.90;43.50;;;;;;4992071;28;20050;-82
2023/06/19 12:06:30;;;;;;;1.83;1.55;;;35.70;43.50;;;;;;4988444;28;20470;-82
2023/06/19 12:08:56;;;;;;;1.90;1.50;;;35.50;43.70;;;;;;5001681;28;20038;-83
2023/06/19 12:11:22;;;;;;;2.03;1.50;;;35.40;44.00;;;;;;5006292;28;20045;-84
2023/06/19 12:13:48;;;;;;;3.08;2.10;;;35.30;44.20;;;;;;4983318;28;20578;-84
2023/06/19 12:16:14;;;;;;;2.13;1.92;;;35.20;44.30;;;;;;4980098;28;20482;-82
2023/06/19 12:18:44;;;;;;;3.08;2.00;;;35.00;44.40;;;;;;4974143;28;20046;-79
2023/06/19 12:21:10;;;;;;;2.25;2.05;;;34.90;44.60;;;;;;4993995;28;20046;-82
2023/06/19 12:23:36;;;;;;;2.42;1.70;;;34.70;44.60;;;;;;4978838;28;20181;-82
2023/06/19 12:26:08;;;;;;;2.30;1.88;;;34.50;44.80;;;;;;4979515;28;20038;-83
2023/06/19 12:28:34;;;;;;;2.30;1.98;;;34.40;44.80;;;;;;4991828;28;20054;-82
2023/06/19 12:31:02;;;;;;;3.28;1.98;;;34.20;44.80;;;;;;4986353;28;20038;-81
2023/06/19 12:33:32;;;;;;;1.83;1.63;;;34.20;45.00;;;;;;4988440;28;20074;-81
2023/06/19 12:35:58;;;;;;;2.33;1.92;;;34.40;45.10;;;;;;4990304;28;20125;-82
2023/06/19 12:38:24;;;;;;;2.72;1.98;;;34.70;44.80;;;;;;4981753;28;20355;-83
2023/06/19 12:40:54;;;;;;;1.77;1.63;;;35.00;44.50;;;;;;4982700;28;20030;-85
2023/06/19 12:43:20;;;;;;;1.48;1.38;;;35.40;44.20;;;;;;4981187;28;20389;-83
2023/06/19 12:45:46;;;;;;;2.00;1.80;;;35.60;44.00;;;;;;5000590;28;20096;-81
2023/06/19 12:48:12;;;;;;;1.83;1.40;;;35.90;43.80;;;;;;4992972;28;20054;-83
2023/06/19 12:50:38;;;;;;;1.77;1.58;;;36.40;43.40;;;;;;4982104;28;20097;-84